Time;durP1;ratioP1;P1;durP2;ratioP2;P2;SDS_P1;SDS_P2;PMS_P1;PMS_P2;Temp;Humidity;BMP_temperature;BMP_pressure;BME280_temperature;BME280_humidity;BME280_pressure;Samples;Min_cycle;Max_cycle;Signal;HPM_P1;HPM_P2
2023/12/12 00:01:20;;;;;;;10.55;5.53;;;9.10;99.90;;;;;;5090889;28;20024;-72
2023/12/12 00:03:46;;;;;;;11.35;5.68;;;9.10;99.90;;;;;;5097729;28;20023;-73
2023/12/12 00:06:11;;;;;;;12.57;5.57;;;9.00;99.90;;;;;;5094439;28;20032;-72
2023/12/12 00:08:37;;;;;;;13.47;6.40;;;9.00;99.90;;;;;;5094658;28;20008;-73
2023/12/12 00:11:05;;;;;;;19.37;6.57;;;8.90;99.90;;;;;;5092878;28;20060;-73
2023/12/12 00:13:30;;;;;;;13.50;6.03;;;8.90;99.90;;;;;;5095424;28;20489;-72
2023/12/12 00:15:56;;;;;;;11.35;6.45;;;8.80;99.90;;;;;;5094314;28;20036;-73
2023/12/12 00:18:21;;;;;;;12.80;5.90;;;8.80;99.90;;;;;;5098029;28;20111;-73
2023/12/12 00:20:47;;;;;;;17.70;6.70;;;8.70;99.90;;;;;;5098524;28;20502;-73
2023/12/12 00:23:13;;;;;;;12.73;5.70;;;8.70;99.90;;;;;;5095673;28;20475;-73
2023/12/12 00:25:38;;;;;;;16.00;7.33;;;8.70;99.90;;;;;;5098615;28;20035;-73
2023/12/12 00:28:04;;;;;;;19.20;8.00;;;8.80;99.90;;;;;;5094715;28;20034;-72
2023/12/12 00:30:30;;;;;;;12.27;7.07;;;8.80;99.90;;;;;;5091989;28;20621;-72
2023/12/12 00:32:55;;;;;;;13.17;7.10;;;8.80;99.90;;;;;;5096278;28;20110;-73
2023/12/12 00:35:21;;;;;;;11.13;6.00;;;8.80;99.90;;;;;;5098032;28;20096;-73
2023/12/12 00:37:46;;;;;;;17.77;9.38;;;8.90;99.90;;;;;;5094817;28;20153;-73
2023/12/12 00:40:12;;;;;;;14.13;7.97;;;8.90;99.90;;;;;;5097522;28;20028;-72
2023/12/12 00:42:37;;;;;;;13.00;7.17;;;8.90;99.90;;;;;;5098306;28;20031;-73
2023/12/12 00:45:03;;;;;;;16.13;7.93;;;8.90;99.90;;;;;;5098324;28;20487;-73
2023/12/12 00:47:30;;;;;;;13.53;7.30;;;8.90;99.90;;;;;;5096319;28;20026;-73
2023/12/12 00:49:55;;;;;;;14.53;6.63;;;8.90;99.90;;;;;;5092186;28;20115;-72
2023/12/12 00:52:21;;;;;;;12.57;6.73;;;8.90;99.90;;;;;;5101316;28;20058;-72
2023/12/12 00:54:46;;;;;;;9.85;6.60;;;8.90;99.90;;;;;;5104167;28;20115;-72
2023/12/12 00:57:12;;;;;;;13.53;6.10;;;8.90;99.90;;;;;;5100846;28;20056;-72
2023/12/12 00:59:37;;;;;;;13.60;6.27;;;8.80;99.90;;;;;;5103514;28;20039;-72
2023/12/12 01:02:03;;;;;;;16.40;6.33;;;8.80;99.90;;;;;;5099961;28;20020;-74
2023/12/12 01:04:33;;;;;;;16.27;6.60;;;8.80;99.90;;;;;;5103690;28;20115;-73
2023/12/12 01:06:59;;;;;;;13.25;6.00;;;8.70;99.90;;;;;;5101345;28;20034;-72
2023/12/12 01:09:25;;;;;;;10.63;5.38;;;8.70;99.90;;;;;;5099886;28;20114;-72
2023/12/12 01:11:50;;;;;;;10.37;5.37;;;8.70;99.90;;;;;;5094785;28;20016;-73
2023/12/12 01:14:16;;;;;;;21.03;7.27;;;8.60;99.90;;;;;;5102633;28;20027;-73
2023/12/12 01:16:41;;;;;;;8.77;5.10;;;8.60;99.90;;;;;;5091554;28;20028;-72
2023/12/12 01:19:07;;;;;;;12.17;6.70;;;8.50;99.90;;;;;;5099767;28;20028;-72
2023/12/12 01:21:32;;;;;;;10.50;6.23;;;8.40;99.90;;;;;;5100064;28;20032;-73
2023/12/12 01:23:58;;;;;;;15.53;6.57;;;8.40;99.90;;;;;;5101133;28;20077;-73
2023/12/12 01:26:25;;;;;;;18.03;6.47;;;8.30;99.90;;;;;;5091706;28;20032;-72
2023/12/12 01:28:51;;;;;;;10.90;6.27;;;8.30;99.90;;;;;;5096041;28;20123;-72
2023/12/12 01:31:18;;;;;;;9.97;6.40;;;8.20;99.90;;;;;;5095790;28;20016;-72
2023/12/12 01:33:44;;;;;;;12.77;6.37;;;8.10;99.90;;;;;;5100581;28;20534;-72
2023/12/12 01:36:10;;;;;;;13.47;7.47;;;8.10;99.90;;;;;;5102675;28;20106;-72
2023/12/12 01:38:36;;;;;;;12.63;6.73;;;8.00;99.90;;;;;;5103091;28;20023;-72
2023/12/12 01:41:01;;;;;;;17.13;8.03;;;7.90;99.90;;;;;;5100670;28;20036;-72
2023/12/12 01:43:29;;;;;;;12.17;6.27;;;7.90;99.90;;;;;;5102401;28;20107;-72
2023/12/12 01:45:59;;;;;;;12.07;7.43;;;7.80;99.90;;;;;;5097268;28;20035;-72
2023/12/12 01:48:26;;;;;;;17.27;7.83;;;7.80;99.90;;;;;;5097394;28;20410;-72
2023/12/12 01:50:51;;;;;;;14.70;7.43;;;7.70;99.90;;;;;;5102756;28;20070;-72
2023/12/12 01:53:21;;;;;;;15.67;8.00;;;7.70;99.90;;;;;;5098805;28;20116;-72
2023/12/12 01:55:48;;;;;;;9.90;6.87;;;7.60;99.90;;;;;;5098775;28;20032;-72
2023/12/12 01:58:14;;;;;;;15.70;8.03;;;7.60;99.90;;;;;;5101298;28;20042;-72
2023/12/12 02:00:39;;;;;;;15.90;7.77;;;7.50;99.90;;;;;;5096991;28;20063;-72
2023/12/12 02:03:05;;;;;;;12.77;7.40;;;7.50;99.90;;;;;;5099110;28;20085;-72
2023/12/12 02:05:31;;;;;;;12.87;7.37;;;7.40;99.90;;;;;;5103539;28;20074;-72
2023/12/12 02:07:58;;;;;;;17.37;7.73;;;7.30;99.90;;;;;;5099574;28;20034;-72
2023/12/12 02:10:24;;;;;;;10.27;7.57;;;7.30;99.90;;;;;;5104637;28;20111;-72
2023/12/12 02:12:50;;;;;;;17.20;7.87;;;7.20;99.90;;;;;;5100194;28;20103;-72
2023/12/12 02:15:15;;;;;;;10.13;6.83;;;7.10;99.90;;;;;;5101182;28;20031;-72
2023/12/12 02:17:41;;;;;;;14.10;7.80;;;7.10;99.90;;;;;;5102489;28;20020;-72
2023/12/12 02:20:07;;;;;;;16.70;8.13;;;7.00;99.90;;;;;;5093090;28;20024;-72
2023/12/12 02:22:33;;;;;;;13.17;8.77;;;7.00;99.90;;;;;;5100899;28;20032;-72
2023/12/12 02:24:58;;;;;;;21.13;8.60;;;6.90;99.90;;;;;;5104372;28;20035;-72
2023/12/12 02:27:25;;;;;;;12.43;8.30;;;6.90;99.90;;;;;;5101366;28;20107;-72
2023/12/12 02:29:51;;;;;;;11.30;8.00;;;6.80;99.90;;;;;;5100551;28;20040;-72
2023/12/12 02:32:16;;;;;;;12.00;8.83;;;6.80;99.90;;;;;;5092847;28;20089;-72
2023/12/12 02:34:43;;;;;;;12.43;8.13;;;6.70;99.90;;;;;;5099915;28;20030;-72
2023/12/12 02:37:08;;;;;;;11.43;8.37;;;6.70;99.90;;;;;;5100033;28;20035;-72
2023/12/12 02:39:34;;;;;;;9.97;7.53;;;6.60;99.90;;;;;;5098824;28;20024;-72
2023/12/12 02:41:59;;;;;;;16.80;8.53;;;6.60;99.90;;;;;;5099994;28;20028;-72
2023/12/12 02:44:25;;;;;;;8.67;7.60;;;6.50;99.90;;;;;;5103324;28;20077;-72
2023/12/12 02:46:50;;;;;;;15.90;8.67;;;6.50;99.90;;;;;;5099997;28;20020;-72
2023/12/12 02:49:16;;;;;;;14.03;9.23;;;6.40;99.90;;;;;;5098410;28;20035;-72
2023/12/12 02:51:41;;;;;;;14.83;9.93;;;6.40;99.90;;;;;;5094446;28;20479;-72
2023/12/12 02:54:07;;;;;;;17.57;9.57;;;6.40;99.90;;;;;;5099572;28;20020;-72
2023/12/12 02:56:33;;;;;;;11.27;8.47;;;6.40;99.90;;;;;;5101041;28;20028;-72
2023/12/12 02:58:59;;;;;;;13.10;9.30;;;6.30;99.90;;;;;;5103564;28;20031;-72
2023/12/12 03:01:24;;;;;;;16.97;11.47;;;6.30;99.90;;;;;;5101150;28;20491;-73
2023/12/12 03:03:50;;;;;;;18.67;10.00;;;6.30;99.90;;;;;;5096967;28;20023;-72
2023/12/12 03:06:16;;;;;;;15.03;10.97;;;6.20;99.90;;;;;;5100444;28;20028;-72
2023/12/12 03:08:42;;;;;;;18.23;11.90;;;6.20;99.90;;;;;;5098317;28;20028;-72
2023/12/12 03:11:07;;;;;;;21.87;11.00;;;6.20;99.90;;;;;;5098493;28;20380;-71
2023/12/12 03:13:33;;;;;;;17.57;11.17;;;6.10;99.90;;;;;;5101658;28;20058;-72
2023/12/12 03:15:59;;;;;;;20.57;12.13;;;6.10;99.90;;;;;;5097764;28;20056;-72
2023/12/12 03:18:24;;;;;;;18.77;11.80;;;6.10;99.90;;;;;;5100318;28;20031;-72
2023/12/12 03:20:50;;;;;;;16.00;11.07;;;6.00;99.90;;;;;;5098462;28;20378;-72
2023/12/12 03:23:15;;;;;;;19.83;11.20;;;6.00;99.90;;;;;;5090003;28;20028;-72
2023/12/12 03:25:41;;;;;;;14.57;11.43;;;6.00;99.90;;;;;;5100113;28;20024;-72
2023/12/12 03:28:06;;;;;;;19.83;10.60;;;5.90;99.90;;;;;;5100082;28;20356;-72
2023/12/12 03:30:32;;;;;;;17.37;11.43;;;6.00;99.90;;;;;;5093858;28;20076;-73
2023/12/12 03:32:59;;;;;;;18.50;10.47;;;5.90;99.90;;;;;;5099054;28;20032;-72
2023/12/12 03:35:24;;;;;;;14.10;10.07;;;5.90;99.90;;;;;;5099948;28;20073;-72
2023/12/12 03:37:50;;;;;;;18.87;11.73;;;5.80;99.90;;;;;;5096234;28;20387;-72
2023/12/12 03:40:15;;;;;;;18.70;11.67;;;5.80;99.90;;;;;;5096352;28;20495;-72
2023/12/12 03:42:41;;;;;;;17.87;11.57;;;5.80;99.90;;;;;;5098906;28;20028;-72
2023/12/12 03:45:07;;;;;;;15.30;10.90;;;5.80;99.90;;;;;;5098649;28;20109;-72
2023/12/12 03:47:33;;;;;;;12.80;9.83;;;5.80;99.90;;;;;;5096630;28;20031;-72
2023/12/12 03:49:58;;;;;;;16.03;10.90;;;5.70;99.90;;;;;;5097721;28;20375;-72
2023/12/12 03:52:24;;;;;;;17.53;12.03;;;5.70;99.90;;;;;;5098663;28;20023;-72
2023/12/12 03:54:49;;;;;;;14.27;10.77;;;5.70;99.90;;;;;;5100557;28;20027;-72
2023/12/12 03:57:14;;;;;;;15.13;10.57;;;5.70;99.90;;;;;;5096601;28;20029;-72
2023/12/12 03:59:40;;;;;;;14.70;10.63;;;5.60;99.90;;;;;;5100391;28;20024;-72
2023/12/12 04:02:06;;;;;;;17.83;11.07;;;5.60;99.90;;;;;;5096534;28;20490;-72
2023/12/12 04:04:31;;;;;;;15.40;11.83;;;5.60;99.90;;;;;;5097110;28;20051;-72
2023/12/12 04:06:57;;;;;;;18.53;12.20;;;5.60;99.90;;;;;;5096778;28;20102;-72
2023/12/12 04:09:22;;;;;;;21.83;14.00;;;5.60;99.90;;;;;;5097137;28;20077;-71
2023/12/12 04:11:48;;;;;;;17.80;11.60;;;5.60;99.90;;;;;;5100888;28;20024;-72
2023/12/12 04:14:13;;;;;;;26.13;13.93;;;5.60;99.90;;;;;;5093392;28;20597;-72
2023/12/12 04:16:39;;;;;;;29.17;16.20;;;5.70;99.90;;;;;;5096999;28;20039;-72
2023/12/12 04:19:05;;;;;;;20.40;14.03;;;5.80;99.90;;;;;;5097999;28;20028;-72
2023/12/12 04:21:30;;;;;;;27.13;15.90;;;5.90;99.90;;;;;;5100551;28;20024;-72
2023/12/12 04:23:56;;;;;;;22.00;13.53;;;6.00;99.90;;;;;;5096305;28;20032;-72
2023/12/12 04:26:21;;;;;;;27.40;15.10;;;6.10;99.90;;;;;;5096027;28;20111;-72
2023/12/12 04:28:47;;;;;;;25.80;13.77;;;6.20;99.90;;;;;;5101404;28;20036;-72
2023/12/12 04:31:16;;;;;;;35.60;15.20;;;6.30;99.90;;;;;;5097860;28;20020;-72
2023/12/12 04:33:42;;;;;;;32.57;14.60;;;6.40;99.90;;;;;;5102120;28;20028;-72
2023/12/12 04:36:11;;;;;;;27.40;16.07;;;6.40;99.90;;;;;;5101613;28;20126;-72
2023/12/12 04:38:38;;;;;;;24.17;13.47;;;6.50;99.90;;;;;;5101400;28;20385;-72
2023/12/12 04:41:03;;;;;;;25.37;13.40;;;6.50;99.90;;;;;;5101919;28;20032;-72
2023/12/12 04:43:29;;;;;;;21.30;13.17;;;6.60;99.90;;;;;;5097267;28;20093;-72
2023/12/12 04:45:56;;;;;;;26.23;14.93;;;6.60;99.90;;;;;;5100888;28;20042;-73
2023/12/12 04:48:21;;;;;;;21.00;13.10;;;6.70;99.90;;;;;;5103450;28;20016;-72
2023/12/12 04:50:47;;;;;;;24.93;13.33;;;6.70;99.90;;;;;;5096545;28;20030;-72
2023/12/12 04:53:13;;;;;;;17.20;12.87;;;6.70;99.90;;;;;;5100608;28;20020;-72
2023/12/12 04:55:39;;;;;;;26.53;15.40;;;6.80;99.90;;;;;;5104639;28;20028;-72
2023/12/12 04:58:04;;;;;;;23.67;13.67;;;6.80;99.90;;;;;;5102430;28;20135;-73
2023/12/12 05:00:30;;;;;;;23.50;13.47;;;6.80;99.90;;;;;;5098786;28;20031;-73
2023/12/12 05:02:55;;;;;;;20.50;13.07;;;6.80;99.90;;;;;;5096707;28;20032;-72
2023/12/12 05:05:21;;;;;;;23.57;13.03;;;6.80;99.90;;;;;;5093736;28;20027;-72
2023/12/12 05:07:46;;;;;;;23.27;13.10;;;6.80;99.90;;;;;;5102127;28;20028;-72
2023/12/12 05:10:12;;;;;;;25.63;13.70;;;6.80;99.90;;;;;;5100535;28;20024;-72
2023/12/12 05:12:38;;;;;;;25.77;14.03;;;6.70;99.90;;;;;;5100769;28;20544;-72
2023/12/12 05:15:04;;;;;;;21.90;13.20;;;6.70;99.90;;;;;;5100567;28;20038;-73
2023/12/12 05:17:30;;;;;;;21.13;12.10;;;6.70;99.90;;;;;;5103758;28;20050;-73
2023/12/12 05:19:57;;;;;;;19.13;11.07;;;6.70;99.90;;;;;;5099607;28;20029;-73
2023/12/12 05:22:23;;;;;;;26.37;12.23;;;6.60;99.90;;;;;;5097933;28;20047;-72
2023/12/12 05:24:48;;;;;;;36.00;14.87;;;6.50;99.90;;;;;;5102079;28;20095;-72
2023/12/12 05:27:14;;;;;;;24.93;12.37;;;6.50;99.90;;;;;;5101854;28;20043;-73
2023/12/12 05:29:39;;;;;;;19.03;11.73;;;6.40;99.90;;;;;;5100591;28;20043;-73
2023/12/12 05:32:06;;;;;;;31.77;15.33;;;6.40;99.90;;;;;;5095859;28;20042;-72
2023/12/12 05:34:31;;;;;;;29.23;15.60;;;6.30;99.90;;;;;;5093984;28;20604;-72
2023/12/12 05:36:57;;;;;;;32.63;16.90;;;6.30;99.90;;;;;;5101026;28;20103;-72
2023/12/12 05:39:22;;;;;;;21.47;13.70;;;6.20;99.90;;;;;;5102434;28;20145;-73
2023/12/12 05:41:48;;;;;;;24.37;14.10;;;6.20;99.90;;;;;;5097747;28;20157;-73
2023/12/12 05:44:14;;;;;;;25.37;14.60;;;6.20;99.90;;;;;;5102396;28;20027;-72
2023/12/12 05:46:39;;;;;;;19.10;11.97;;;6.10;99.90;;;;;;5101739;28;20367;-72
2023/12/12 05:49:06;;;;;;;22.77;12.17;;;6.10;99.90;;;;;;5098936;28;20038;-72
2023/12/12 05:51:34;;;;;;;43.57;21.13;;;6.10;99.90;;;;;;5100350;28;20020;-73
2023/12/12 05:54:00;;;;;;;25.60;14.00;;;6.10;99.90;;;;;;5090997;28;20107;-73
2023/12/12 05:56:25;;;;;;;24.87;13.67;;;6.10;99.90;;;;;;5102069;28;20111;-72
2023/12/12 05:58:51;;;;;;;28.87;13.47;;;6.10;99.90;;;;;;5101097;28;20024;-72
2023/12/12 06:01:17;;;;;;;17.73;12.23;;;6.10;99.90;;;;;;5096490;28;20210;-73
2023/12/12 06:03:43;;;;;;;22.73;13.43;;;6.10;99.90;;;;;;5100443;28;20023;-73
2023/12/12 06:06:09;;;;;;;25.53;13.77;;;6.10;99.90;;;;;;5099294;28;20103;-73
2023/12/12 06:08:36;;;;;;;17.67;12.53;;;6.10;99.90;;;;;;5098669;28;20099;-72
2023/12/12 06:11:02;;;;;;;23.37;13.27;;;6.10;99.90;;;;;;5100843;28;20073;-72
2023/12/12 06:13:28;;;;;;;18.43;13.30;;;6.20;99.90;;;;;;5102733;28;20024;-72
2023/12/12 06:15:54;;;;;;;21.47;14.23;;;6.20;99.90;;;;;;5099007;28;20024;-72
2023/12/12 06:18:19;;;;;;;18.87;13.67;;;6.30;99.90;;;;;;5100709;28;20773;-73
2023/12/12 06:20:45;;;;;;;27.63;17.27;;;6.40;99.90;;;;;;5094857;28;20028;-73
2023/12/12 06:23:12;;;;;;;26.97;13.53;;;6.40;99.90;;;;;;5094645;28;20695;-73
2023/12/12 06:25:38;;;;;;;24.33;16.20;;;6.50;99.90;;;;;;5092744;28;20025;-72
2023/12/12 06:28:04;;;;;;;24.17;14.53;;;6.50;99.90;;;;;;5100969;28;20028;-73
2023/12/12 06:30:29;;;;;;;24.37;14.30;;;6.50;99.90;;;;;;5099015;28;20044;-73
2023/12/12 06:32:55;;;;;;;36.90;18.43;;;6.60;99.90;;;;;;5101234;28;20038;-73
2023/12/12 06:35:22;;;;;;;43.07;18.60;;;6.60;99.90;;;;;;5094769;28;20503;-73
2023/12/12 06:37:48;;;;;;;43.30;20.63;;;6.70;99.90;;;;;;5100220;28;20027;-73
2023/12/12 06:40:14;;;;;;;41.83;20.83;;;6.70;99.90;;;;;;5098131;28;20044;-73
2023/12/12 06:42:40;;;;;;;35.97;20.63;;;6.70;99.90;;;;;;5094307;28;20040;-73
2023/12/12 06:45:10;;;;;;;39.40;18.23;;;6.70;99.90;;;;;;5099932;28;20016;-72
2023/12/12 06:47:36;;;;;;;38.57;20.23;;;6.70;99.90;;;;;;5101261;28;20110;-72
2023/12/12 06:50:03;;;;;;;53.17;23.87;;;6.70;99.90;;;;;;5098779;28;20038;-73
2023/12/12 06:52:28;;;;;;;45.87;23.73;;;6.70;99.90;;;;;;5097465;28;20016;-73
2023/12/12 06:54:54;;;;;;;39.93;20.17;;;6.70;99.90;;;;;;5090844;28;20150;-72
2023/12/12 06:57:20;;;;;;;46.53;20.73;;;6.70;99.90;;;;;;5094977;28;20439;-72
2023/12/12 06:59:45;;;;;;;53.17;24.10;;;6.70;99.90;;;;;;5099448;28;20076;-72
2023/12/12 07:02:11;;;;;;;56.27;23.40;;;6.70;99.90;;;;;;5097455;28;20030;-72
2023/12/12 07:04:36;;;;;;;49.93;19.93;;;6.70;99.90;;;;;;5099837;28;20020;-73
2023/12/12 07:07:03;;;;;;;48.97;19.20;;;6.80;99.90;;;;;;5099987;28;20046;-72
2023/12/12 07:09:28;;;;;;;44.37;18.40;;;6.80;99.90;;;;;;5100828;28;20038;-72
2023/12/12 07:11:54;;;;;;;30.23;15.17;;;6.90;99.90;;;;;;5094592;28;20032;-73
2023/12/12 07:14:20;;;;;;;38.23;17.07;;;7.00;99.90;;;;;;5098938;28;20076;-73
2023/12/12 07:16:45;;;;;;;46.00;17.80;;;7.00;99.90;;;;;;5097394;28;20077;-72
2023/12/12 07:19:11;;;;;;;37.97;17.10;;;7.10;99.90;;;;;;5092825;28;20422;-72
2023/12/12 07:21:41;;;;;;;30.43;15.47;;;7.10;99.90;;;;;;5096138;28;20075;-72
2023/12/12 07:24:07;;;;;;;28.73;14.53;;;7.20;99.90;;;;;;5092390;28;20017;-73
2023/12/12 07:26:33;;;;;;;47.60;16.73;;;7.20;99.90;;;;;;5101736;28;20026;-73
2023/12/12 07:28:59;;;;;;;51.97;20.07;;;7.30;99.90;;;;;;5090772;28;20051;-72
2023/12/12 07:31:25;;;;;;;35.33;15.13;;;7.30;99.90;;;;;;5094729;27;20016;-72
2023/12/12 07:33:50;;;;;;;49.23;20.67;;;7.40;99.90;;;;;;5095581;28;20026;-73
2023/12/12 07:36:16;;;;;;;55.70;21.33;;;7.40;99.90;;;;;;5096545;28;20081;-73
2023/12/12 07:38:41;;;;;;;53.63;18.17;;;7.40;99.90;;;;;;5098851;28;20027;-73
2023/12/12 07:41:07;;;;;;;54.87;21.10;;;7.40;99.90;;;;;;5098454;28;20036;-72
2023/12/12 07:43:33;;;;;;;52.57;19.37;;;7.40;99.90;;;;;;5097439;28;20016;-72
2023/12/12 07:45:58;;;;;;;42.23;18.60;;;7.40;99.90;;;;;;5098050;28;20046;-72
2023/12/12 07:48:24;;;;;;;59.70;20.73;;;7.40;99.90;;;;;;5099818;28;20020;-72
2023/12/12 07:50:50;;;;;;;47.77;17.20;;;7.40;99.90;;;;;;5099111;28;20031;-72
2023/12/12 07:53:16;;;;;;;43.90;18.10;;;7.40;99.90;;;;;;5100305;28;20036;-72
2023/12/12 07:55:41;;;;;;;58.77;20.23;;;7.40;99.90;;;;;;5097108;28;20028;-73
2023/12/12 07:58:07;;;;;;;62.03;21.63;;;7.40;99.90;;;;;;5098805;28;20028;-72
2023/12/12 08:00:32;;;;;;;64.00;24.20;;;7.50;99.90;;;;;;5096236;28;20365;-73
2023/12/12 08:02:58;;;;;;;54.93;20.93;;;7.50;99.90;;;;;;5097152;28;20036;-72
2023/12/12 08:05:24;;;;;;;60.37;22.00;;;7.50;99.90;;;;;;5087895;28;20028;-72
2023/12/12 08:07:50;;;;;;;66.93;21.87;;;7.60;99.90;;;;;;5095112;28;20041;-73
2023/12/12 08:10:15;;;;;;;50.90;19.33;;;7.60;99.90;;;;;;5094820;28;20033;-73
2023/12/12 08:12:41;;;;;;;47.77;19.07;;;7.60;99.90;;;;;;5099713;28;20043;-73
2023/12/12 08:15:07;;;;;;;52.30;18.60;;;7.70;99.90;;;;;;5096540;28;20025;-73
2023/12/12 08:17:33;;;;;;;63.93;21.77;;;7.80;99.90;;;;;;5090891;28;20016;-74
2023/12/12 08:19:58;;;;;;;51.83;18.83;;;7.80;99.90;;;;;;5096336;28;20024;-71
2023/12/12 08:22:24;;;;;;;65.63;22.37;;;7.90;99.90;;;;;;5096357;28;20024;-70
2023/12/12 08:24:51;;;;;;;68.60;21.03;;;7.90;99.90;;;;;;5096067;28;20084;-70
2023/12/12 08:27:19;;;;;;;51.43;22.07;;;7.90;99.90;;;;;;5100144;28;20036;-70
2023/12/12 08:29:46;;;;;;;60.13;21.00;;;8.00;99.90;;;;;;5096303;28;20081;-71
2023/12/12 08:32:12;;;;;;;59.33;20.80;;;8.00;99.90;;;;;;5099094;28;20038;-71
2023/12/12 08:34:38;;;;;;;53.17;20.70;;;8.00;99.90;;;;;;5089721;28;20024;-70
2023/12/12 08:37:04;;;;;;;52.97;19.77;;;8.10;99.90;;;;;;5095137;28;20024;-70
2023/12/12 08:39:31;;;;;;;47.53;19.03;;;8.10;99.90;;;;;;5092523;28;20496;-70
2023/12/12 08:41:57;;;;;;;51.40;16.67;;;8.20;99.90;;;;;;5089434;28;20032;-70
2023/12/12 08:44:23;;;;;;;45.37;17.50;;;8.20;99.90;;;;;;5096313;28;20028;-70
2023/12/12 08:46:50;;;;;;;41.67;16.80;;;8.20;99.90;;;;;;5100010;28;20027;-70
2023/12/12 08:49:18;;;;;;;49.13;17.77;;;8.30;99.90;;;;;;5092477;28;20051;-71
2023/12/12 08:51:44;;;;;;;38.17;15.60;;;8.30;99.90;;;;;;5092630;28;20021;-71
2023/12/12 08:54:10;;;;;;;51.33;17.27;;;8.30;99.90;;;;;;5088333;28;20082;-71
2023/12/12 08:56:38;;;;;;;45.00;16.13;;;8.40;99.90;;;;;;5100505;28;20015;-71
2023/12/12 08:59:04;;;;;;;44.37;16.10;;;8.40;99.90;;;;;;5094684;28;20077;-71
2023/12/12 09:01:30;;;;;;;43.93;15.40;;;8.50;99.90;;;;;;5097461;28;20024;-71
2023/12/12 09:03:56;;;;;;;47.40;14.07;;;8.50;99.90;;;;;;5095780;28;20116;-71
2023/12/12 09:06:22;;;;;;;46.63;15.00;;;8.50;99.90;;;;;;5099645;28;20027;-70
2023/12/12 09:08:48;;;;;;;47.53;14.63;;;8.60;99.90;;;;;;5094510;28;20016;-70
2023/12/12 09:11:13;;;;;;;41.30;14.63;;;8.60;99.90;;;;;;5094586;28;20035;-70
2023/12/12 09:13:41;;;;;;;34.57;11.43;;;8.70;99.90;;;;;;5097220;28;20028;-71
2023/12/12 09:16:06;;;;;;;42.10;14.10;;;8.70;99.90;;;;;;5097797;28;20483;-71
2023/12/12 09:18:32;;;;;;;34.90;12.10;;;8.70;99.90;;;;;;5100324;28;20027;-70
2023/12/12 09:20:57;;;;;;;41.67;12.83;;;8.80;99.90;;;;;;5098186;28;20166;-71
2023/12/12 09:23:27;;;;;;;37.77;13.20;;;8.80;99.90;;;;;;5099834;28;20043;-71
2023/12/12 09:25:54;;;;;;;37.13;11.20;;;8.90;99.90;;;;;;5092698;28;20024;-71
2023/12/12 09:28:19;;;;;;;32.27;11.43;;;8.90;99.90;;;;;;5088691;28;20020;-71
2023/12/12 09:30:45;;;;;;;29.53;10.97;;;8.90;99.90;;;;;;5089184;28;20032;-71
2023/12/12 09:33:10;;;;;;;33.40;11.13;;;8.90;99.90;;;;;;5101132;28;20036;-71
2023/12/12 09:35:37;;;;;;;28.97;10.60;;;9.00;99.90;;;;;;5099334;28;20020;-70
2023/12/12 09:38:03;;;;;;;33.13;12.00;;;9.00;99.90;;;;;;5092072;28;20035;-70
2023/12/12 09:40:28;;;;;;;41.20;12.33;;;9.00;99.90;;;;;;5099954;28;20031;-71
2023/12/12 09:42:54;;;;;;;26.33;12.13;;;9.00;99.90;;;;;;5102668;28;20063;-71
2023/12/12 09:45:23;;;;;;;38.10;10.40;;;9.00;99.90;;;;;;5100199;28;20028;-70
2023/12/12 09:47:50;;;;;;;45.77;11.60;;;9.10;99.90;;;;;;5100939;28;20019;-70
2023/12/12 09:50:16;;;;;;;30.57;10.80;;;9.10;99.90;;;;;;5093917;28;20036;-70
2023/12/12 09:52:44;;;;;;;32.27;9.87;;;9.10;99.90;;;;;;5095430;28;20491;-71
2023/12/12 09:55:10;;;;;;;42.10;12.07;;;9.10;99.90;;;;;;5100263;28;20020;-71
2023/12/12 09:57:35;;;;;;;31.30;12.35;;;9.10;99.90;;;;;;5095121;28;20065;-71
2023/12/12 10:00:02;;;;;;;44.00;12.17;;;9.20;99.90;;;;;;5098588;28;20557;-71
2023/12/12 10:02:34;;;;;;;30.83;11.00;;;9.20;99.90;;;;;;5098010;28;20054;-69
2023/12/12 10:05:03;;;;;;;31.08;10.48;;;9.30;99.90;;;;;;5093131;28;20111;-69
2023/12/12 10:07:30;;;;;;;34.63;11.30;;;9.30;99.90;;;;;;5100550;28;20070;-70
2023/12/12 10:09:55;;;;;;;34.03;11.65;;;9.40;99.90;;;;;;5088122;28;20379;-71
2023/12/12 10:12:21;;;;;;;32.38;10.75;;;9.40;99.90;;;;;;5097286;28;20030;-71
2023/12/12 10:14:49;;;;;;;37.67;12.23;;;9.50;99.90;;;;;;5098944;28;20019;-71
2023/12/12 10:17:15;;;;;;;29.33;11.45;;;9.50;99.90;;;;;;5097180;28;20019;-71
2023/12/12 10:19:41;;;;;;;29.03;12.67;;;9.60;99.90;;;;;;5098412;28;20035;-71
2023/12/12 10:22:08;;;;;;;33.03;11.23;;;9.60;99.90;;;;;;5097882;28;20032;-71
2023/12/12 10:24:37;;;;;;;21.05;10.07;;;9.60;99.90;;;;;;5092107;28;20016;-71
2023/12/12 10:27:04;;;;;;;28.05;10.48;;;9.70;99.90;;;;;;5093220;28;20546;-71
2023/12/12 10:29:31;;;;;;;31.47;10.90;;;9.70;99.90;;;;;;5093615;28;20059;-71
2023/12/12 10:31:58;;;;;;;36.93;11.13;;;9.70;99.90;;;;;;5096856;28;20387;-71
2023/12/12 10:34:27;;;;;;;29.63;9.47;;;9.80;99.90;;;;;;5097707;28;20015;-71
2023/12/12 10:36:53;;;;;;;27.90;8.55;;;9.80;99.90;;;;;;5100828;28;20034;-71
2023/12/12 10:39:19;;;;;;;26.63;8.75;;;9.90;99.90;;;;;;5096468;28;20102;-71
2023/12/12 10:41:52;;;;;;;27.47;7.97;;;10.00;99.90;;;;;;5100818;28;20126;-71
2023/12/12 10:44:21;;;;;;;27.75;8.50;;;10.00;99.90;;;;;;5093285;28;20035;-71
2023/12/12 10:46:52;;;;;;;25.83;7.73;;;10.10;99.90;;;;;;5095181;28;20502;-71
2023/12/12 10:49:20;;;;;;;23.38;7.53;;;10.10;99.90;;;;;;5087454;28;20021;-71
2023/12/12 10:51:47;;;;;;;28.33;7.57;;;10.10;99.90;;;;;;5090285;28;20031;-71
2023/12/12 10:54:15;;;;;;;23.90;7.53;;;10.10;99.90;;;;;;5091759;28;20019;-71
2023/12/12 10:56:46;;;;;;;25.77;7.15;;;10.20;99.90;;;;;;5092133;28;20382;-71
2023/12/12 10:59:16;;;;;;;25.27;6.93;;;10.20;99.90;;;;;;5098652;28;20027;-71
2023/12/12 11:01:45;;;;;;;20.33;6.57;;;10.30;99.90;;;;;;5093800;28;20066;-72
2023/12/12 11:04:11;;;;;;;33.33;8.63;;;10.30;99.90;;;;;;5091652;28;20042;-71
2023/12/12 11:06:37;;;;;;;24.10;7.82;;;10.40;99.90;;;;;;5092346;28;20515;-71
2023/12/12 11:09:03;;;;;;;20.52;6.97;;;10.40;99.90;;;;;;5089024;28;20035;-70
2023/12/12 11:11:29;;;;;;;20.27;6.85;;;10.50;99.90;;;;;;5099018;28;20023;-71
2023/12/12 11:13:56;;;;;;;24.55;7.15;;;10.50;99.90;;;;;;5097121;28;20047;-71
2023/12/12 11:16:21;;;;;;;25.52;6.35;;;10.50;99.90;;;;;;5096329;28;20387;-70
2023/12/12 11:18:48;;;;;;;25.98;7.35;;;10.50;99.90;;;;;;5097768;28;20012;-70
2023/12/12 11:21:42;;;;;;;22.95;6.30;;;10.50;99.90;;;;;;5098620;28;20030;-70
2023/12/12 11:24:08;;;;;;;25.50;7.15;;;10.50;99.90;;;;;;5093677;28;20023;-71
2023/12/12 11:26:36;;;;;;;24.23;5.90;;;10.40;99.90;;;;;;5096422;28;20557;-71
2023/12/12 11:29:06;;;;;;;24.15;6.30;;;10.50;99.90;;;;;;5099540;28;20040;-71
2023/12/12 11:31:34;;;;;;;21.92;5.75;;;10.50;99.90;;;;;;5095612;28;20024;-71
2023/12/12 11:34:04;;;;;;;19.13;5.82;;;10.50;99.90;;;;;;5096299;28;20031;-71
2023/12/12 11:36:59;;;;;;;26.42;5.60;;;10.60;99.90;;;;;;5097087;28;20439;-71
2023/12/12 11:39:52;;;;;;;18.40;5.43;;;10.60;99.90;;;;;;5087483;28;20085;-71
2023/12/12 11:42:22;;;;;;;19.73;7.32;;;10.70;99.90;;;;;;5098507;28;20108;-71
2023/12/12 11:44:49;;;;;;;22.75;7.32;;;10.70;99.90;;;;;;5097708;28;20020;-71
2023/12/12 11:47:18;;;;;;;22.90;5.90;;;10.70;99.90;;;;;;5094677;28;20035;-71
2023/12/12 11:49:44;;;;;;;21.02;6.63;;;10.70;99.90;;;;;;5096057;28;20028;-71
2023/12/12 11:52:10;;;;;;;22.00;6.40;;;10.80;99.90;;;;;;5096709;28;20035;-71
2023/12/12 11:54:38;;;;;;;16.67;5.65;;;10.80;99.90;;;;;;5087967;28;20480;-71
2023/12/12 11:57:04;;;;;;;14.75;5.45;;;10.80;99.90;;;;;;5097562;28;20023;-71
2023/12/12 11:59:32;;;;;;;18.67;5.50;;;10.90;99.90;;;;;;5092587;28;20019;-71
2023/12/12 12:01:58;;;;;;;17.63;5.70;;;11.00;99.90;;;;;;5088715;28;20020;-71
2023/12/12 12:04:24;;;;;;;14.60;4.60;;;11.10;99.90;;;;;;5097076;28;20437;-71
2023/12/12 12:06:58;;;;;;;18.38;4.97;;;11.10;99.90;;;;;;5101347;28;20063;-71
2023/12/12 12:09:24;;;;;;;14.20;5.05;;;11.20;99.90;;;;;;5096943;28;20028;-69
2023/12/12 12:11:51;;;;;;;15.63;4.40;;;11.20;99.90;;;;;;5095294;28;20415;-70
2023/12/12 12:14:22;;;;;;;18.48;4.38;;;11.30;99.90;;;;;;5093187;28;20019;-70
2023/12/12 12:16:52;;;;;;;16.17;5.28;;;11.30;99.90;;;;;;5093772;28;20030;-71
2023/12/12 12:19:29;;;;;;;16.55;5.18;;;11.40;99.90;;;;;;5097777;28;20016;-71
2023/12/12 12:21:56;;;;;;;15.13;4.13;;;11.40;99.90;;;;;;5095701;28;20044;-70
2023/12/12 12:24:22;;;;;;;13.68;5.03;;;11.40;99.90;;;;;;5097250;28;20057;-70
2023/12/12 12:26:47;;;;;;;14.88;5.03;;;11.50;99.90;;;;;;5092456;28;20066;-71
2023/12/12 12:29:13;;;;;;;9.95;4.28;;;11.50;99.90;;;;;;5094479;28;20036;-71
2023/12/12 12:31:38;;;;;;;12.75;4.00;;;11.60;99.90;;;;;;5096458;28;20027;-71
2023/12/12 12:34:17;;;;;;;15.60;4.32;;;11.60;99.90;;;;;;5097572;28;20028;-71
2023/12/12 12:36:42;;;;;;;17.00;4.20;;;11.60;99.90;;;;;;5100103;28;20016;-71